sensor_id;sensor_type;location;lat;lon;timestamp;temperature;humidity
28959;DHT22;16066;0.000;0.000;2023-06-24T05:31:36;22.60;54.40
28959;DHT22;16066;0.000;0.000;2023-06-24T05:34:02;22.50;54.60
28959;DHT22;16066;0.000;0.000;2023-06-24T05:36:27;22.50;54.70
28959;DHT22;16066;0.000;0.000;2023-06-24T05:38:54;22.50;54.60
28959;DHT22;16066;0.000;0.000;2023-06-24T05:41:19;22.50;54.70
28959;DHT22;16066;0.000;0.000;2023-06-24T05:43:45;22.50;54.70
28959;DHT22;16066;0.000;0.000;2023-06-24T05:46:10;22.50;54.70
28959;DHT22;16066;0.000;0.000;2023-06-24T05:48:37;22.50;54.70
28959;DHT22;16066;0.000;0.000;2023-06-24T05:51:02;22.50;54.70
28959;DHT22;16066;0.000;0.000;2023-06-24T05:53:28;22.60;54.70
28959;DHT22;16066;0.000;0.000;2023-06-24T05:55:54;22.60;54.70
28959;DHT22;16066;0.000;0.000;2023-06-24T05:58:19;22.60;54.70
28959;DHT22;16066;0.000;0.000;2023-06-24T06:00:45;22.60;54.70
28959;DHT22;16066;0.000;0.000;2023-06-24T06:03:10;22.70;54.80
28959;DHT22;16066;0.000;0.000;2023-06-24T06:05:36;22.70;54.90
28959;DHT22;16066;0.000;0.000;2023-06-24T06:08:01;22.70;54.80
28959;DHT22;16066;0.000;0.000;2023-06-24T06:10:27;22.70;54.70
28959;DHT22;16066;0.000;0.000;2023-06-24T06:12:52;22.70;54.80
28959;DHT22;16066;0.000;0.000;2023-06-24T06:15:18;22.80;54.70
28959;DHT22;16066;0.000;0.000;2023-06-24T06:17:45;22.80;54.70
28959;DHT22;16066;0.000;0.000;2023-06-24T06:20:11;22.80;54.60
28959;DHT22;16066;0.000;0.000;2023-06-24T06:22:37;22.90;54.80
28959;DHT22;16066;0.000;0.000;2023-06-24T06:25:05;22.90;54.60
28959;DHT22;16066;0.000;0.000;2023-06-24T06:27:30;22.90;54.60
28959;DHT22;16066;0.000;0.000;2023-06-24T06:29:56;23.00;54.40
28959;DHT22;16066;0.000;0.000;2023-06-24T06:32:22;23.00;54.30
28959;DHT22;16066;0.000;0.000;2023-06-24T06:34:47;23.00;54.40
28959;DHT22;16066;0.000;0.000;2023-06-24T06:37:13;23.00;54.40
28959;DHT22;16066;0.000;0.000;2023-06-24T06:39:38;22.90;54.30
28959;DHT22;16066;0.000;0.000;2023-06-24T06:42:04;22.90;54.30
28959;DHT22;16066;0.000;0.000;2023-06-24T06:44:30;23.00;54.50
28959;DHT22;16066;0.000;0.000;2023-06-24T06:46:55;23.00;54.30
28959;DHT22;16066;0.000;0.000;2023-06-24T06:49:21;23.00;54.40
28959;DHT22;16066;0.000;0.000;2023-06-24T06:51:47;23.00;54.40
28959;DHT22;16066;0.000;0.000;2023-06-24T06:54:13;22.90;54.50
28959;DHT22;16066;0.000;0.000;2023-06-24T06:56:38;22.90;54.70
28959;DHT22;16066;0.000;0.000;2023-06-24T06:59:05;23.00;54.70
28959;DHT22;16066;0.000;0.000;2023-06-24T07:01:30;22.90;54.80
28959;DHT22;16066;0.000;0.000;2023-06-24T07:03:56;22.90;54.90
28959;DHT22;16066;0.000;0.000;2023-06-24T07:06:21;22.90;55.10
28959;DHT22;16066;0.000;0.000;2023-06-24T07:08:47;22.90;55.30
28959;DHT22;16066;0.000;0.000;2023-06-24T07:11:12;22.90;55.20
28959;DHT22;16066;0.000;0.000;2023-06-24T07:13:38;22.90;55.20
28959;DHT22;16066;0.000;0.000;2023-06-24T07:16:03;22.90;55.40
28959;DHT22;16066;0.000;0.000;2023-06-24T07:18:29;23.00;55.50
28959;DHT22;16066;0.000;0.000;2023-06-24T07:20:56;23.00;55.50
28959;DHT22;16066;0.000;0.000;2023-06-24T07:23:22;23.00;55.70
28959;DHT22;16066;0.000;0.000;2023-06-24T07:25:47;23.00;55.80
28959;DHT22;16066;0.000;0.000;2023-06-24T07:28:13;23.00;56.10
28959;DHT22;16066;0.000;0.000;2023-06-24T07:30:39;23.00;56.10
28959;DHT22;16066;0.000;0.000;2023-06-24T07:33:05;23.00;56.10
28959;DHT22;16066;0.000;0.000;2023-06-24T07:35:31;23.10;56.20
28959;DHT22;16066;0.000;0.000;2023-06-24T07:37:58;23.10;56.30
28959;DHT22;16066;0.000;0.000;2023-06-24T07:40:23;23.10;56.50
28959;DHT22;16066;0.000;0.000;2023-06-24T07:42:49;23.10;56.70
28959;DHT22;16066;0.000;0.000;2023-06-24T07:45:14;23.10;57.00
28959;DHT22;16066;0.000;0.000;2023-06-24T07:47:40;23.20;56.90
28959;DHT22;16066;0.000;0.000;2023-06-24T07:50:05;23.20;57.00
28959;DHT22;16066;0.000;0.000;2023-06-24T07:52:31;23.20;57.00
28959;DHT22;16066;0.000;0.000;2023-06-24T07:54:58;23.30;56.90
28959;DHT22;16066;0.000;0.000;2023-06-24T07:57:24;23.30;56.70
28959;DHT22;16066;0.000;0.000;2023-06-24T07:59:49;23.30;56.60
28959;DHT22;16066;0.000;0.000;2023-06-24T08:02:15;23.30;56.80
28959;DHT22;16066;0.000;0.000;2023-06-24T08:04:40;23.40;56.90
28959;DHT22;16066;0.000;0.000;2023-06-24T08:07:06;23.40;56.70
28959;DHT22;16066;0.000;0.000;2023-06-24T08:09:31;23.50;56.90
28959;DHT22;16066;0.000;0.000;2023-06-24T08:11:57;23.50;56.80
28959;DHT22;16066;0.000;0.000;2023-06-24T08:14:22;23.50;57.30
28959;DHT22;16066;0.000;0.000;2023-06-24T08:16:48;23.60;56.70
28959;DHT22;16066;0.000;0.000;2023-06-24T08:19:13;23.60;56.70
28959;DHT22;16066;0.000;0.000;2023-06-24T08:21:39;23.60;56.50
28959;DHT22;16066;0.000;0.000;2023-06-24T08:24:06;23.70;56.50
28959;DHT22;16066;0.000;0.000;2023-06-24T08:26:32;23.70;56.40
28959;DHT22;16066;0.000;0.000;2023-06-24T08:28:58;23.70;56.20
28959;DHT22;16066;0.000;0.000;2023-06-24T08:31:25;23.80;56.20
28959;DHT22;16066;0.000;0.000;2023-06-24T08:33:54;23.80;56.10
28959;DHT22;16066;0.000;0.000;2023-06-24T08:36:21;23.80;56.10
28959;DHT22;16066;0.000;0.000;2023-06-24T08:38:49;23.80;56.10
28959;DHT22;16066;0.000;0.000;2023-06-24T08:41:14;23.90;55.90
28959;DHT22;16066;0.000;0.000;2023-06-24T08:43:40;23.90;55.70
28959;DHT22;16066;0.000;0.000;2023-06-24T08:46:06;23.90;55.40
28959;DHT22;16066;0.000;0.000;2023-06-24T08:48:33;23.90;55.10
28959;DHT22;16066;0.000;0.000;2023-06-24T08:51:07;24.00;55.10
28959;DHT22;16066;0.000;0.000;2023-06-24T08:53:34;24.00;54.90
28959;DHT22;16066;0.000;0.000;2023-06-24T08:56:01;24.00;54.80
28959;DHT22;16066;0.000;0.000;2023-06-24T08:58:27;24.10;54.80
28959;DHT22;16066;0.000;0.000;2023-06-24T09:00:53;24.10;54.60
28959;DHT22;16066;0.000;0.000;2023-06-24T09:03:18;24.10;54.40
28959;DHT22;16066;0.000;0.000;2023-06-24T09:05:44;24.10;54.90
28959;DHT22;16066;0.000;0.000;2023-06-24T09:08:09;24.10;54.20
28959;DHT22;16066;0.000;0.000;2023-06-24T09:10:36;24.10;54.10
28959;DHT22;16066;0.000;0.000;2023-06-24T09:13:03;24.10;54.00
28959;DHT22;16066;0.000;0.000;2023-06-24T09:15:33;24.20;54.10
28959;DHT22;16066;0.000;0.000;2023-06-24T09:17:59;24.20;54.00
28959;DHT22;16066;0.000;0.000;2023-06-24T09:20:28;24.20;54.00
28959;DHT22;16066;0.000;0.000;2023-06-24T09:22:59;24.20;53.90
28959;DHT22;16066;0.000;0.000;2023-06-24T09:25:25;24.20;53.80
28959;DHT22;16066;0.000;0.000;2023-06-24T09:27:51;24.20;53.80
28959;DHT22;16066;0.000;0.000;2023-06-24T09:30:24;24.20;53.70
28959;DHT22;16066;0.000;0.000;2023-06-24T09:32:51;24.30;53.70
28959;DHT22;16066;0.000;0.000;2023-06-24T09:35:21;24.30;53.60
28959;DHT22;16066;0.000;0.000;2023-06-24T09:37:54;24.30;53.50
28959;DHT22;16066;0.000;0.000;2023-06-24T09:40:23;24.30;53.50
28959;DHT22;16066;0.000;0.000;2023-06-24T09:42:53;24.30;53.60
28959;DHT22;16066;0.000;0.000;2023-06-24T09:45:26;24.30;53.50
28959;DHT22;16066;0.000;0.000;2023-06-24T09:47:53;24.30;53.70
28959;DHT22;16066;0.000;0.000;2023-06-24T09:50:19;24.40;53.80
28959;DHT22;16066;0.000;0.000;2023-06-24T09:52:45;24.40;54.00
28959;DHT22;16066;0.000;0.000;2023-06-24T09:55:13;24.50;54.00
28959;DHT22;16066;0.000;0.000;2023-06-24T09:57:41;24.50;53.80
28959;DHT22;16066;0.000;0.000;2023-06-24T10:00:08;24.50;53.90
28959;DHT22;16066;0.000;0.000;2023-06-24T10:02:35;24.50;53.70
28959;DHT22;16066;0.000;0.000;2023-06-24T10:05:01;24.50;53.80
28959;DHT22;16066;0.000;0.000;2023-06-24T10:07:28;24.60;53.80
28959;DHT22;16066;0.000;0.000;2023-06-24T10:09:54;24.60;53.80
28959;DHT22;16066;0.000;0.000;2023-06-24T10:12:20;24.60;53.90
28959;DHT22;16066;0.000;0.000;2023-06-24T10:14:46;24.60;53.60
28959;DHT22;16066;0.000;0.000;2023-06-24T10:17:12;24.60;53.60
28959;DHT22;16066;0.000;0.000;2023-06-24T10:19:39;24.70;53.90
28959;DHT22;16066;0.000;0.000;2023-06-24T10:22:08;24.70;53.60
28959;DHT22;16066;0.000;0.000;2023-06-24T10:24:40;24.80;53.50
28959;DHT22;16066;0.000;0.000;2023-06-24T10:27:09;24.80;53.40
28959;DHT22;16066;0.000;0.000;2023-06-24T10:29:38;24.80;53.10
28959;DHT22;16066;0.000;0.000;2023-06-24T10:32:08;24.80;53.00
28959;DHT22;16066;0.000;0.000;2023-06-24T10:37:00;24.90;52.90
28959;DHT22;16066;0.000;0.000;2023-06-24T10:39:40;24.90;52.60
28959;DHT22;16066;0.000;0.000;2023-06-24T10:42:28;25.00;52.60
28959;DHT22;16066;0.000;0.000;2023-06-24T10:44:59;25.00;52.70
28959;DHT22;16066;0.000;0.000;2023-06-24T10:47:26;25.00;52.40
28959;DHT22;16066;0.000;0.000;2023-06-24T10:49:53;25.00;52.60
28959;DHT22;16066;0.000;0.000;2023-06-24T10:52:20;25.00;52.10
28959;DHT22;16066;0.000;0.000;2023-06-24T10:54:46;25.00;52.00
28959;DHT22;16066;0.000;0.000;2023-06-24T10:57:12;25.00;51.90
28959;DHT22;16066;0.000;0.000;2023-06-24T10:59:47;25.10;52.20
28959;DHT22;16066;0.000;0.000;2023-06-24T11:02:15;25.10;51.90
28959;DHT22;16066;0.000;0.000;2023-06-24T11:04:49;25.10;51.90
28959;DHT22;16066;0.000;0.000;2023-06-24T11:07:17;25.10;52.00
28959;DHT22;16066;0.000;0.000;2023-06-24T11:09:49;25.10;51.50
28959;DHT22;16066;0.000;0.000;2023-06-24T11:12:14;25.20;51.60
28959;DHT22;16066;0.000;0.000;2023-06-24T11:14:40;25.20;51.00
28959;DHT22;16066;0.000;0.000;2023-06-24T11:17:06;25.20;50.80
28959;DHT22;16066;0.000;0.000;2023-06-24T11:19:31;25.30;50.70
28959;DHT22;16066;0.000;0.000;2023-06-24T11:22:01;25.30;50.60
28959;DHT22;16066;0.000;0.000;2023-06-24T11:24:29;25.30;50.30
28959;DHT22;16066;0.000;0.000;2023-06-24T11:26:56;25.30;51.00
28959;DHT22;16066;0.000;0.000;2023-06-24T11:29:22;25.40;49.00
28959;DHT22;16066;0.000;0.000;2023-06-24T11:31:51;25.40;48.10
28959;DHT22;16066;0.000;0.000;2023-06-24T11:34:17;25.50;48.30
28959;DHT22;16066;0.000;0.000;2023-06-24T11:36:42;25.50;48.00
28959;DHT22;16066;0.000;0.000;2023-06-24T11:39:08;25.50;48.00
28959;DHT22;16066;0.000;0.000;2023-06-24T11:41:34;25.50;47.30
28959;DHT22;16066;0.000;0.000;2023-06-24T11:43:59;25.60;47.60
28959;DHT22;16066;0.000;0.000;2023-06-24T11:46:29;25.60;47.60
28959;DHT22;16066;0.000;0.000;2023-06-24T11:49:05;25.60;46.20
28959;DHT22;16066;0.000;0.000;2023-06-24T11:51:32;25.60;45.80
28959;DHT22;16066;0.000;0.000;2023-06-24T11:54:05;25.70;46.80
28959;DHT22;16066;0.000;0.000;2023-06-24T11:56:43;25.70;46.60
28959;DHT22;16066;0.000;0.000;2023-06-24T11:59:20;25.70;46.30
28959;DHT22;16066;0.000;0.000;2023-06-24T12:01:56;25.80;46.30
28959;DHT22;16066;0.000;0.000;2023-06-24T12:04:28;25.80;45.90
28959;DHT22;16066;0.000;0.000;2023-06-24T12:06:54;25.80;46.70
28959;DHT22;16066;0.000;0.000;2023-06-24T12:09:19;25.90;46.60
28959;DHT22;16066;0.000;0.000;2023-06-24T12:11:45;25.90;46.80
28959;DHT22;16066;0.000;0.000;2023-06-24T12:14:11;25.80;47.00
28959;DHT22;16066;0.000;0.000;2023-06-24T12:16:37;25.80;47.00
28959;DHT22;16066;0.000;0.000;2023-06-24T12:19:03;25.90;46.90
28959;DHT22;16066;0.000;0.000;2023-06-24T12:21:28;25.90;46.90
28959;DHT22;16066;0.000;0.000;2023-06-24T12:23:54;25.90;46.80
28959;DHT22;16066;0.000;0.000;2023-06-24T12:26:19;25.90;47.60
28959;DHT22;16066;0.000;0.000;2023-06-24T12:28:45;25.90;47.20
28959;DHT22;16066;0.000;0.000;2023-06-24T12:31:11;25.90;47.20
28959;DHT22;16066;0.000;0.000;2023-06-24T12:33:37;25.90;47.40
28959;DHT22;16066;0.000;0.000;2023-06-24T12:36:02;25.90;45.60
28959;DHT22;16066;0.000;0.000;2023-06-24T12:38:28;26.00;43.90
28959;DHT22;16066;0.000;0.000;2023-06-24T12:40:53;26.00;42.80
28959;DHT22;16066;0.000;0.000;2023-06-24T12:43:19;26.10;42.50
28959;DHT22;16066;0.000;0.000;2023-06-24T12:45:44;26.10;42.60
28959;DHT22;16066;0.000;0.000;2023-06-24T12:48:13;26.10;42.50
28959;DHT22;16066;0.000;0.000;2023-06-24T12:50:39;26.10;42.10
28959;DHT22;16066;0.000;0.000;2023-06-24T12:53:05;26.10;41.60
28959;DHT22;16066;0.000;0.000;2023-06-24T12:55:30;26.10;41.40
28959;DHT22;16066;0.000;0.000;2023-06-24T12:57:56;26.20;41.60
28959;DHT22;16066;0.000;0.000;2023-06-24T13:00:23;26.20;42.20
28959;DHT22;16066;0.000;0.000;2023-06-24T13:02:50;26.20;42.10
28959;DHT22;16066;0.000;0.000;2023-06-24T13:05:16;26.10;42.50
28959;DHT22;16066;0.000;0.000;2023-06-24T13:07:43;26.10;42.20
28959;DHT22;16066;0.000;0.000;2023-06-24T13:10:09;26.10;42.00
28959;DHT22;16066;0.000;0.000;2023-06-24T13:12:35;26.10;42.00
28959;DHT22;16066;0.000;0.000;2023-06-24T13:15:01;26.10;42.70
28959;DHT22;16066;0.000;0.000;2023-06-24T13:17:26;26.10;43.10
28959;DHT22;16066;0.000;0.000;2023-06-24T13:19:52;26.10;42.30
28959;DHT22;16066;0.000;0.000;2023-06-24T13:22:18;26.10;41.30
28959;DHT22;16066;0.000;0.000;2023-06-24T13:24:44;26.20;40.80
28959;DHT22;16066;0.000;0.000;2023-06-24T13:27:10;26.20;39.90
28959;DHT22;16066;0.000;0.000;2023-06-24T13:29:36;26.30;39.60
28959;DHT22;16066;0.000;0.000;2023-06-24T13:32:02;26.30;39.50
28959;DHT22;16066;0.000;0.000;2023-06-24T13:34:28;26.30;39.70
28959;DHT22;16066;0.000;0.000;2023-06-24T13:36:53;26.30;40.10
28959;DHT22;16066;0.000;0.000;2023-06-24T13:39:19;26.30;41.40
28959;DHT22;16066;0.000;0.000;2023-06-24T13:41:48;26.30;42.70
28959;DHT22;16066;0.000;0.000;2023-06-24T13:44:13;26.30;42.50
28959;DHT22;16066;0.000;0.000;2023-06-24T13:46:39;26.30;43.30
28959;DHT22;16066;0.000;0.000;2023-06-24T13:49:04;26.20;41.50
28959;DHT22;16066;0.000;0.000;2023-06-24T13:51:30;26.30;41.20
28959;DHT22;16066;0.000;0.000;2023-06-24T13:53:56;26.30;41.30
28959;DHT22;16066;0.000;0.000;2023-06-24T13:56:23;26.30;41.50
28959;DHT22;16066;0.000;0.000;2023-06-24T13:58:50;26.40;41.40
28959;DHT22;16066;0.000;0.000;2023-06-24T14:01:15;26.40;41.00
28959;DHT22;16066;0.000;0.000;2023-06-24T14:03:41;26.50;41.80
28959;DHT22;16066;0.000;0.000;2023-06-24T14:06:07;26.50;42.40
28959;DHT22;16066;0.000;0.000;2023-06-24T14:08:33;26.50;41.90
28959;DHT22;16066;0.000;0.000;2023-06-24T14:10:59;26.60;41.80
28959;DHT22;16066;0.000;0.000;2023-06-24T14:13:26;26.60;42.80
28959;DHT22;16066;0.000;0.000;2023-06-24T14:15:52;26.60;42.70
28959;DHT22;16066;0.000;0.000;2023-06-24T14:18:18;26.60;43.00
28959;DHT22;16066;0.000;0.000;2023-06-24T14:20:43;26.60;43.20
28959;DHT22;16066;0.000;0.000;2023-06-24T14:23:09;26.50;43.10
28959;DHT22;16066;0.000;0.000;2023-06-24T14:25:34;26.60;42.70
28959;DHT22;16066;0.000;0.000;2023-06-24T14:28:03;26.60;42.40
28959;DHT22;16066;0.000;0.000;2023-06-24T14:30:29;26.60;42.00
28959;DHT22;16066;0.000;0.000;2023-06-24T14:32:54;26.70;42.20
28959;DHT22;16066;0.000;0.000;2023-06-24T14:35:20;26.70;42.70
28959;DHT22;16066;0.000;0.000;2023-06-24T14:37:45;26.70;42.30
28959;DHT22;16066;0.000;0.000;2023-06-24T14:40:11;26.70;42.50
28959;DHT22;16066;0.000;0.000;2023-06-24T14:42:36;26.70;42.60
28959;DHT22;16066;0.000;0.000;2023-06-24T14:45:02;26.70;42.50
28959;DHT22;16066;0.000;0.000;2023-06-24T14:47:27;26.70;42.60
28959;DHT22;16066;0.000;0.000;2023-06-24T14:49:53;26.70;42.80
28959;DHT22;16066;0.000;0.000;2023-06-24T14:52:18;26.60;42.50
28959;DHT22;16066;0.000;0.000;2023-06-24T14:54:46;26.60;42.50
28959;DHT22;16066;0.000;0.000;2023-06-24T14:57:12;26.70;41.90
28959;DHT22;16066;0.000;0.000;2023-06-24T14:59:37;26.60;42.50
28959;DHT22;16066;0.000;0.000;2023-06-24T15:02:03;26.60;43.10
28959;DHT22;16066;0.000;0.000;2023-06-24T15:04:29;26.60;43.00
28959;DHT22;16066;0.000;0.000;2023-06-24T15:06:54;26.60;43.10
28959;DHT22;16066;0.000;0.000;2023-06-24T15:09:22;26.60;44.00
28959;DHT22;16066;0.000;0.000;2023-06-24T15:11:47;26.60;43.60
28959;DHT22;16066;0.000;0.000;2023-06-24T15:14:13;26.60;43.70
28959;DHT22;16066;0.000;0.000;2023-06-24T15:16:38;26.60;43.90
28959;DHT22;16066;0.000;0.000;2023-06-24T15:19:04;26.60;43.70
28959;DHT22;16066;0.000;0.000;2023-06-24T15:21:29;26.60;42.90
28959;DHT22;16066;0.000;0.000;2023-06-24T15:23:55;26.60;42.50
28959;DHT22;16066;0.000;0.000;2023-06-24T15:26:20;26.60;43.20
28959;DHT22;16066;0.000;0.000;2023-06-24T15:28:46;26.70;43.10
28959;DHT22;16066;0.000;0.000;2023-06-24T15:31:11;26.70;43.00
28959;DHT22;16066;0.000;0.000;2023-06-24T15:33:37;26.70;43.60
28959;DHT22;16066;0.000;0.000;2023-06-24T15:36:02;26.70;43.70
28959;DHT22;16066;0.000;0.000;2023-06-24T15:38:28;26.70;44.10
28959;DHT22;16066;0.000;0.000;2023-06-24T15:40:53;26.70;44.20
28959;DHT22;16066;0.000;0.000;2023-06-24T15:43:19;26.70;43.60
28959;DHT22;16066;0.000;0.000;2023-06-24T15:45:44;26.70;43.60
28959;DHT22;16066;0.000;0.000;2023-06-24T15:48:10;26.70;43.60
28959;DHT22;16066;0.000;0.000;2023-06-24T15:50:35;26.70;43.10
28959;DHT22;16066;0.000;0.000;2023-06-24T15:53:02;26.70;42.90
28959;DHT22;16066;0.000;0.000;2023-06-24T15:55:28;26.70;42.90
28959;DHT22;16066;0.000;0.000;2023-06-24T15:57:53;26.70;42.40
28959;DHT22;16066;0.000;0.000;2023-06-24T16:00:19;26.80;42.40
28959;DHT22;16066;0.000;0.000;2023-06-24T16:02:44;26.80;42.60
28959;DHT22;16066;0.000;0.000;2023-06-24T16:05:10;26.80;42.80
28959;DHT22;16066;0.000;0.000;2023-06-24T16:07:35;26.70;42.90
28959;DHT22;16066;0.000;0.000;2023-06-24T16:10:02;26.70;43.10
28959;DHT22;16066;0.000;0.000;2023-06-24T16:12:28;26.60;42.70
28959;DHT22;16066;0.000;0.000;2023-06-24T16:14:54;26.60;43.10
28959;DHT22;16066;0.000;0.000;2023-06-24T16:17:19;26.60;42.80
28959;DHT22;16066;0.000;0.000;2023-06-24T16:19:45;26.70;42.50
28959;DHT22;16066;0.000;0.000;2023-06-24T16:22:11;26.70;42.00
28959;DHT22;16066;0.000;0.000;2023-06-24T16:24:36;26.70;41.50
28959;DHT22;16066;0.000;0.000;2023-06-24T16:27:02;26.80;40.70
28959;DHT22;16066;0.000;0.000;2023-06-24T16:29:28;26.80;40.30
28959;DHT22;16066;0.000;0.000;2023-06-24T16:31:53;26.80;39.90
28959;DHT22;16066;0.000;0.000;2023-06-24T16:34:19;26.80;40.20
28959;DHT22;16066;0.000;0.000;2023-06-24T16:36:44;26.70;41.00
28959;DHT22;16066;0.000;0.000;2023-06-24T16:39:10;26.70;41.50
28959;DHT22;16066;0.000;0.000;2023-06-24T16:41:35;26.70;41.20
28959;DHT22;16066;0.000;0.000;2023-06-24T16:44:01;26.70;40.60
28959;DHT22;16066;0.000;0.000;2023-06-24T16:46:26;26.70;40.80
28959;DHT22;16066;0.000;0.000;2023-06-24T16:48:53;26.70;41.60
28959;DHT22;16066;0.000;0.000;2023-06-24T16:51:18;26.70;42.40
28959;DHT22;16066;0.000;0.000;2023-06-24T16:53:44;26.70;42.50
28959;DHT22;16066;0.000;0.000;2023-06-24T16:56:10;26.60;42.50
28959;DHT22;16066;0.000;0.000;2023-06-24T16:58:35;26.70;43.10
28959;DHT22;16066;0.000;0.000;2023-06-24T17:01:01;26.60;43.40
28959;DHT22;16066;0.000;0.000;2023-06-24T17:03:26;26.60;43.60
28959;DHT22;16066;0.000;0.000;2023-06-24T17:05:52;26.60;43.40
28959;DHT22;16066;0.000;0.000;2023-06-24T17:08:18;26.50;43.10
28959;DHT22;16066;0.000;0.000;2023-06-24T17:10:44;26.40;42.90
28959;DHT22;16066;0.000;0.000;2023-06-24T17:13:10;26.40;43.40
28959;DHT22;16066;0.000;0.000;2023-06-24T17:15:35;26.30;43.40
28959;DHT22;16066;0.000;0.000;2023-06-24T17:18:01;26.40;43.80
28959;DHT22;16066;0.000;0.000;2023-06-24T17:20:26;26.40;43.70
28959;DHT22;16066;0.000;0.000;2023-06-24T17:22:52;26.40;43.20
28959;DHT22;16066;0.000;0.000;2023-06-24T17:25:17;26.40;43.10
28959;DHT22;16066;0.000;0.000;2023-06-24T17:27:43;26.40;42.90
28959;DHT22;16066;0.000;0.000;2023-06-24T17:30:09;26.40;42.80
28959;DHT22;16066;0.000;0.000;2023-06-24T17:32:34;26.40;42.90
28959;DHT22;16066;0.000;0.000;2023-06-24T17:35:00;26.40;42.80
28959;DHT22;16066;0.000;0.000;2023-06-24T17:37:25;26.40;42.80
28959;DHT22;16066;0.000;0.000;2023-06-24T17:39:51;26.30;42.70
28959;DHT22;16066;0.000;0.000;2023-06-24T17:42:17;26.30;42.70
28959;DHT22;16066;0.000;0.000;2023-06-24T17:44:43;26.30;42.50
28959;DHT22;16066;0.000;0.000;2023-06-24T17:47:08;26.30;42.50
28959;DHT22;16066;0.000;0.000;2023-06-24T17:49:34;26.30;42.60
28959;DHT22;16066;0.000;0.000;2023-06-24T17:51:59;26.30;43.00
28959;DHT22;16066;0.000;0.000;2023-06-24T17:54:25;26.30;43.30
28959;DHT22;16066;0.000;0.000;2023-06-24T17:56:51;26.30;43.20
28959;DHT22;16066;0.000;0.000;2023-06-24T17:59:16;26.30;43.10
28959;DHT22;16066;0.000;0.000;2023-06-24T18:01:43;26.30;43.10
28959;DHT22;16066;0.000;0.000;2023-06-24T18:04:08;26.30;43.10
28959;DHT22;16066;0.000;0.000;2023-06-24T18:06:34;26.40;43.00
28959;DHT22;16066;0.000;0.000;2023-06-24T18:08:59;26.40;42.60
28959;DHT22;16066;0.000;0.000;2023-06-24T18:11:25;26.40;42.30
28959;DHT22;16066;0.000;0.000;2023-06-24T18:13:50;26.30;42.20
28959;DHT22;16066;0.000;0.000;2023-06-24T18:16:16;26.30;42.20
28959;DHT22;16066;0.000;0.000;2023-06-24T18:18:43;26.20;42.30
28959;DHT22;16066;0.000;0.000;2023-06-24T18:21:08;26.20;42.40
28959;DHT22;16066;0.000;0.000;2023-06-24T18:23:34;26.10;42.40
28959;DHT22;16066;0.000;0.000;2023-06-24T18:25:59;26.10;42.50
28959;DHT22;16066;0.000;0.000;2023-06-24T18:28:25;26.10;42.70
28959;DHT22;16066;0.000;0.000;2023-06-24T18:30:50;26.10;42.90
28959;DHT22;16066;0.000;0.000;2023-06-24T18:33:17;26.00;43.00
28959;DHT22;16066;0.000;0.000;2023-06-24T18:35:42;26.10;43.30
28959;DHT22;16066;0.000;0.000;2023-06-24T18:38:09;26.10;43.50
28959;DHT22;16066;0.000;0.000;2023-06-24T18:40:34;26.10;43.70
28959;DHT22;16066;0.000;0.000;2023-06-24T18:43:00;26.10;43.90
28959;DHT22;16066;0.000;0.000;2023-06-24T18:45:25;26.10;44.00
28959;DHT22;16066;0.000;0.000;2023-06-24T18:47:51;26.10;44.10
28959;DHT22;16066;0.000;0.000;2023-06-24T18:50:18;26.10;44.20
28959;DHT22;16066;0.000;0.000;2023-06-24T18:52:43;26.10;44.30
28959;DHT22;16066;0.000;0.000;2023-06-24T18:55:09;26.10;44.30
28959;DHT22;16066;0.000;0.000;2023-06-24T18:57:34;26.10;44.40
28959;DHT22;16066;0.000;0.000;2023-06-24T19:00:00;26.10;44.40
28959;DHT22;16066;0.000;0.000;2023-06-24T19:02:25;26.10;44.40
28959;DHT22;16066;0.000;0.000;2023-06-24T19:04:51;26.10;44.50
28959;DHT22;16066;0.000;0.000;2023-06-24T19:07:16;26.10;44.50
28959;DHT22;16066;0.000;0.000;2023-06-24T19:09:42;26.10;44.60
28959;DHT22;16066;0.000;0.000;2023-06-24T19:12:07;26.10;44.60
28959;DHT22;16066;0.000;0.000;2023-06-24T19:14:33;26.10;44.70
28959;DHT22;16066;0.000;0.000;2023-06-24T19:16:58;26.10;44.80
28959;DHT22;16066;0.000;0.000;2023-06-24T19:19:24;26.10;44.90
28959;DHT22;16066;0.000;0.000;2023-06-24T19:21:49;26.10;45.00
28959;DHT22;16066;0.000;0.000;2023-06-24T19:24:15;26.10;45.00
28959;DHT22;16066;0.000;0.000;2023-06-24T19:26:42;26.10;45.10
28959;DHT22;16066;0.000;0.000;2023-06-24T19:29:07;26.20;45.20
28959;DHT22;16066;0.000;0.000;2023-06-24T19:31:33;26.20;45.20
28959;DHT22;16066;0.000;0.000;2023-06-24T19:33:58;26.20;45.30
28959;DHT22;16066;0.000;0.000;2023-06-24T19:36:24;26.20;45.20
28959;DHT22;16066;0.000;0.000;2023-06-24T19:38:49;26.20;45.20
28959;DHT22;16066;0.000;0.000;2023-06-24T19:41:15;26.20;45.00
28959;DHT22;16066;0.000;0.000;2023-06-24T19:43:46;26.20;44.80
28959;DHT22;16066;0.000;0.000;2023-06-24T19:46:12;26.20;44.90
28959;DHT22;16066;0.000;0.000;2023-06-24T19:48:37;26.10;44.90
28959;DHT22;16066;0.000;0.000;2023-06-24T19:51:03;26.10;44.80
28959;DHT22;16066;0.000;0.000;2023-06-24T19:53:28;26.10;44.70
28959;DHT22;16066;0.000;0.000;2023-06-24T19:55:54;26.10;44.50
28959;DHT22;16066;0.000;0.000;2023-06-24T19:58:19;26.10;44.70
28959;DHT22;16066;0.000;0.000;2023-06-24T20:00:45;26.00;44.70
28959;DHT22;16066;0.000;0.000;2023-06-24T20:03:10;26.00;44.60
28959;DHT22;16066;0.000;0.000;2023-06-24T20:05:36;26.00;44.70
28959;DHT22;16066;0.000;0.000;2023-06-24T20:08:01;26.00;44.60
28959;DHT22;16066;0.000;0.000;2023-06-24T20:10:29;26.00;44.90
28959;DHT22;16066;0.000;0.000;2023-06-24T20:12:55;26.00;45.10
28959;DHT22;16066;0.000;0.000;2023-06-24T20:15:20;26.10;45.50
28959;DHT22;16066;0.000;0.000;2023-06-24T20:17:46;26.10;45.30
28959;DHT22;16066;0.000;0.000;2023-06-24T20:20:11;26.10;45.40
28959;DHT22;16066;0.000;0.000;2023-06-24T20:22:39;26.10;45.10
28959;DHT22;16066;0.000;0.000;2023-06-24T20:25:05;26.10;45.40
28959;DHT22;16066;0.000;0.000;2023-06-24T20:27:31;26.10;45.40
28959;DHT22;16066;0.000;0.000;2023-06-24T20:29:57;26.10;45.30
28959;DHT22;16066;0.000;0.000;2023-06-24T20:32:23;26.20;45.30
28959;DHT22;16066;0.000;0.000;2023-06-24T20:34:48;26.20;45.30
28959;DHT22;16066;0.000;0.000;2023-06-24T20:37:14;26.20;45.30
28959;DHT22;16066;0.000;0.000;2023-06-24T20:39:39;26.20;45.20
28959;DHT22;16066;0.000;0.000;2023-06-24T20:42:08;26.30;45.30
28959;DHT22;16066;0.000;0.000;2023-06-24T20:44:33;26.20;45.40
28959;DHT22;16066;0.000;0.000;2023-06-24T20:46:59;26.20;45.40
28959;DHT22;16066;0.000;0.000;2023-06-24T20:49:24;26.20;45.40
28959;DHT22;16066;0.000;0.000;2023-06-24T20:51:50;26.30;45.40
28959;DHT22;16066;0.000;0.000;2023-06-24T20:54:15;26.30;45.40
28959;DHT22;16066;0.000;0.000;2023-06-24T20:56:41;26.30;45.40
28959;DHT22;16066;0.000;0.000;2023-06-24T20:59:06;26.30;45.50
28959;DHT22;16066;0.000;0.000;2023-06-24T21:01:32;26.20;45.30
28959;DHT22;16066;0.000;0.000;2023-06-24T21:03:57;26.20;45.10
28959;DHT22;16066;0.000;0.000;2023-06-24T21:06:23;26.20;45.00
28959;DHT22;16066;0.000;0.000;2023-06-24T21:08:48;26.20;44.90
28959;DHT22;16066;0.000;0.000;2023-06-24T21:11:14;26.20;45.20